Time;durP1;ratioP1;P1;durP2;ratioP2;P2;SDS_P1;SDS_P2;PMS_P1;PMS_P2;Temp;Humidity;BMP_temperature;BMP_pressure;BME280_temperature;BME280_humidity;BME280_pressure;Samples;Min_cycle;Max_cycle;Signal;HPM_P1;HPM_P2
2023/10/22 00:01:13;;;;;;;1.80;1.57;;;;;;;10.02;79.40;94600.84;6077695;23;20179;-84
2023/10/22 00:04:06;;;;;;;2.37;1.30;;;;;;;9.98;79.50;94602.13;6074471;23;20183;-85
2023/10/22 00:06:52;;;;;;;1.40;1.30;;;;;;;9.89;80.37;94609.16;6125209;23;20145;-84
2023/10/22 00:09:35;;;;;;;2.80;2.03;;;;;;;9.94;80.79;94603.47;6102085;23;20218;-85
2023/10/22 00:12:12;;;;;;;2.97;1.80;;;;;;;9.89;81.40;94613.50;6085109;23;20136;-85
2023/10/22 00:14:49;;;;;;;2.90;1.70;;;;;;;9.89;81.59;94609.16;6150236;23;20231;-85
2023/10/22 00:17:37;;;;;;;3.77;1.53;;;;;;;9.90;81.51;94608.19;6093019;23;20194;-85
2023/10/22 00:20:35;;;;;;;2.20;1.43;;;;;;;9.93;81.84;94613.03;6104871;23;20255;-85
2023/10/22 00:23:03;;;;;;;3.53;1.70;;;;;;;9.97;81.25;94617.88;6252929;22;20156;-86
2023/10/22 00:28:41;;;;;;;4.87;1.43;;;;;;;9.90;80.89;94615.16;6278450;22;20300;-86
2023/10/22 00:31:24;;;;;;;2.83;1.40;;;;;;;9.94;80.34;94619.84;6225118;22;20164;-85
2023/10/22 00:34:09;;;;;;;2.07;1.57;;;;;;;10.03;79.96;94625.00;6228946;22;20147;-86
2023/10/22 00:36:41;;;;;;;2.17;1.17;;;;;;;10.08;79.24;94630.50;6224632;22;20153;-86
2023/10/22 00:39:53;;;;;;;2.47;1.60;;;;;;;10.07;79.11;94634.06;6223879;22;20184;-85
2023/10/22 00:42:39;;;;;;;4.77;1.50;;;;;;;10.04;78.82;94637.00;6222860;22;20180;-85
2023/10/22 00:45:31;;;;;;;2.60;1.20;;;;;;;10.04;78.52;94640.41;6222610;22;20184;-85
2023/10/22 00:48:04;;;;;;;1.83;1.30;;;;;;;9.98;79.11;94645.44;6223359;22;20245;-86
2023/10/22 00:50:42;;;;;;;3.17;1.40;;;;;;;9.97;79.21;94647.22;6217016;22;20163;-85
2023/10/22 00:53:29;;;;;;;4.60;1.90;;;;;;;9.85;80.30;94648.53;6221898;22;20156;-85
2023/10/22 00:56:12;;;;;;;2.23;1.70;;;;;;;9.87;80.41;94652.59;6245463;22;20164;-85
2023/10/22 00:58:49;;;;;;;2.67;1.40;;;;;;;9.78;80.96;94652.75;6221128;22;20255;-83
2023/10/22 01:01:27;;;;;;;2.70;1.40;;;;;;;9.75;81.23;94653.91;6222506;22;20159;-84
2023/10/22 01:03:56;;;;;;;3.80;1.70;;;;;;;9.71;81.18;94652.59;6245916;22;20180;-84
2023/10/22 01:06:47;;;;;;;4.10;1.53;;;;;;;9.73;81.45;94662.84;6221750;22;20167;-85
2023/10/22 01:09:20;;;;;;;2.57;1.33;;;;;;;9.67;81.62;94647.94;6223566;22;20198;-85
2023/10/22 01:12:03;;;;;;;5.67;1.60;;;;;;;9.59;82.82;94662.50;6224487;22;20785;-85
2023/10/22 01:14:34;;;;;;;1.87;1.23;;;;;;;9.60;82.26;94660.72;6247655;22;20183;-84
2023/10/22 01:17:18;;;;;;;1.57;1.40;;;;;;;9.59;81.75;94659.09;6222951;22;20202;-84
2023/10/22 01:20:00;;;;;;;1.97;1.20;;;;;;;9.54;81.38;94661.38;6222049;22;20148;-84
2023/10/22 01:22:38;;;;;;;3.63;1.60;;;;;;;9.59;80.76;94665.09;6220904;22;20616;-84
2023/10/22 01:25:10;;;;;;;2.30;1.30;;;;;;;9.58;80.91;94660.88;6221084;22;20222;-84
2023/10/22 01:27:50;;;;;;;2.43;1.20;;;;;;;9.52;81.13;94656.34;6222113;22;20643;-84
2023/10/22 01:30:35;;;;;;;;;;;;;;;;;;;;;
2023/10/22 01:33:08;;;;;;;4.30;1.10;;;;;;;9.59;80.92;94659.09;6221154;23;20212;-85
2023/10/22 01:35:57;;;;;;;3.70;1.40;;;;;;;9.63;80.24;94652.63;6193121;23;20224;-85
2023/10/22 01:38:22;;;;;;;2.23;1.10;;;;;;;9.57;80.73;94648.91;6208770;23;20181;-86
2023/10/22 01:40:51;;;;;;;4.03;1.70;;;;;;;9.52;81.12;94653.75;6193331;23;20187;-85
2023/10/22 01:43:19;;;;;;;3.77;1.27;;;;;;;9.51;81.05;94657.31;6190768;23;20193;-85
2023/10/22 01:45:58;;;;;;;1.97;1.30;;;;;;;9.57;80.97;94653.28;6193025;23;20668;-84
2023/10/22 01:49:01;;;;;;;2.73;1.40;;;;;;;9.56;80.93;94657.66;6217338;23;20187;-84
2023/10/22 01:51:48;;;;;;;;;;;;;;;;;;;;;
2023/10/22 01:54:31;;;;;;;3.83;1.50;;;;;;;9.42;81.44;94666.06;6221945;23;20232;-86
2023/10/22 01:59:42;;;;;;;4.70;1.33;;;;;;;9.49;81.03;94659.28;6243924;22;20590;-83
2023/10/22 02:02:19;;;;;;;3.33;1.43;;;;;;;9.32;81.54;94668.81;6191547;23;20161;-85
2023/10/22 02:04:45;;;;;;;2.83;1.40;;;;;;;9.45;81.07;94667.53;6193341;23;20181;-83
2023/10/22 02:07:16;;;;;;;2.80;1.20;;;;;;;9.47;81.24;94673.38;6212470;23;20182;-84
2023/10/22 02:09:56;;;;;;;2.17;1.20;;;;;;;9.47;80.74;94669.00;6162503;23;20165;-84
2023/10/22 02:12:29;;;;;;;2.60;1.07;;;;;;;9.41;81.28;94679.19;6189692;23;20598;-85
2023/10/22 02:15:10;;;;;;;2.87;1.30;;;;;;;9.41;81.33;94682.59;6189300;23;20198;-84
2023/10/22 02:17:37;;;;;;;4.37;1.23;;;;;;;9.43;81.17;94678.06;6164649;23;20208;-84
2023/10/22 02:20:03;;;;;;;2.97;1.40;;;;;;;9.43;80.98;94680.66;6164946;23;20614;-85
2023/10/22 02:22:28;;;;;;;2.47;1.27;;;;;;;9.37;81.38;94676.13;6188892;23;20165;-85
2023/10/22 02:24:56;;;;;;;2.27;1.20;;;;;;;9.30;81.35;94680.31;6187204;23;20523;-84
2023/10/22 02:27:21;;;;;;;2.50;1.30;;;;;;;9.30;81.51;94685.50;6188797;23;20178;-86
2023/10/22 02:29:47;;;;;;;2.93;1.17;;;;;;;9.30;81.59;94681.13;6188206;23;20604;-86
2023/10/22 02:32:18;;;;;;;2.27;1.40;;;;;;;9.23;81.12;94680.16;6187580;23;20163;-84
2023/10/22 02:34:52;;;;;;;2.37;1.30;;;;;;;9.16;81.82;94686.94;6163739;23;20154;-84
2023/10/22 02:37:51;;;;;;;3.07;1.43;;;;;;;9.14;81.48;94683.69;6163800;23;20260;-85
2023/10/22 02:40:42;;;;;;;2.30;1.30;;;;;;;9.11;81.67;94681.44;6213017;23;20158;-85
2023/10/22 02:43:16;;;;;;;2.90;1.47;;;;;;;9.02;82.47;94683.19;6166321;23;20162;-85
2023/10/22 02:52:24;;;;;;;4.13;1.30;;;;;;;8.92;82.45;94681.69;6092965;23;20160;-86
2023/10/22 02:55:03;;;;;;;2.00;1.40;;;;;;;8.85;83.08;94686.72;6068432;23;20247;-86
2023/10/22 02:57:51;;;;;;;1.40;1.30;;;;;;;8.87;83.01;94687.38;6087839;23;20181;-86
2023/10/22 03:00:29;;;;;;;1.87;1.50;;;;;;;8.92;82.63;94699.81;6047123;23;20184;-86
2023/10/22 03:03:18;;;;;;;1.57;1.10;;;;;;;8.85;83.18;94706.63;6092574;23;20172;-85
2023/10/22 03:06:02;;;;;;;1.70;1.50;;;;;;;8.85;82.95;94716.97;6068797;23;20164;-84
2023/10/22 03:08:52;;;;;;;1.87;1.37;;;;;;;8.72;83.23;94722.59;6093289;23;20172;-86
2023/10/22 03:12:04;;;;;;;2.00;1.33;;;;;;;8.77;83.87;94730.72;6100519;23;20199;-84
2023/10/22 03:15:08;;;;;;;1.50;1.10;;;;;;;8.77;84.22;94735.88;6007160;23;20183;-86
2023/10/22 03:18:09;;;;;;;3.23;1.33;;;;;;;8.78;84.06;94727.97;5908986;24;20189;-86
2023/10/22 03:20:50;;;;;;;2.77;1.10;;;;;;;8.80;84.15;94725.22;5898683;24;21142;-87
2023/10/22 03:23:25;;;;;;;2.93;1.27;;;;;;;8.76;83.67;94734.25;5874702;24;20161;-84
2023/10/22 03:26:22;;;;;;;2.73;1.17;;;;;;;8.89;82.99;94739.00;5875244;24;20563;-84
2023/10/22 03:29:02;;;;;;;2.07;1.03;;;;;;;8.94;83.13;94744.53;5925134;24;20184;-85
2023/10/22 03:31:43;;;;;;;3.70;1.57;;;;;;;8.91;83.46;94737.84;5905718;24;20163;-85
2023/10/22 03:34:21;;;;;;;3.20;1.20;;;;;;;8.78;84.59;94743.50;5949567;24;20191;-82
2023/10/22 03:36:57;;;;;;;3.47;1.33;;;;;;;8.88;83.52;94745.94;5928405;24;20192;-84
2023/10/22 03:39:25;;;;;;;2.60;1.23;;;;;;;8.77;83.84;94744.47;5907861;24;20166;-84
2023/10/22 03:41:51;;;;;;;1.90;1.30;;;;;;;8.82;84.11;94749.16;5931956;24;20186;-86
2023/10/22 03:44:19;;;;;;;4.20;1.80;;;;;;;8.77;84.05;94747.03;5931818;24;20940;-84
2023/10/22 03:46:50;;;;;;;3.23;1.20;;;;;;;8.79;83.46;94747.69;5908271;24;20184;-87
2023/10/22 03:49:41;;;;;;;3.50;1.10;;;;;;;8.76;84.04;94748.03;5931148;24;20164;-85
2023/10/22 03:52:12;;;;;;;1.93;1.07;;;;;;;8.78;83.44;94763.38;6006697;23;20161;-84
2023/10/22 03:54:42;;;;;;;2.27;1.23;;;;;;;8.78;83.33;94769.38;6137451;23;20151;-85
2023/10/22 03:57:34;;;;;;;3.23;1.27;;;;;;;8.78;82.62;94764.19;6181285;23;20197;-85
2023/10/22 04:00:23;;;;;;;2.30;1.03;;;;;;;8.72;83.16;94764.81;6189466;23;20144;-86
2023/10/22 04:05:56;;;;;;;2.57;1.27;;;;;;;8.69;82.68;94762.53;6196062;23;20173;-86
2023/10/22 04:08:36;;;;;;;3.53;1.43;;;;;;;8.63;82.83;94772.69;6216320;23;20185;-84
2023/10/22 04:11:10;;;;;;;1.83;1.10;;;;;;;8.67;82.99;94768.84;6213173;23;20196;-84
2023/10/22 04:14:11;;;;;;;1.40;1.00;;;;;;;8.57;82.95;94770.72;6189106;23;20174;-84
2023/10/22 04:16:50;;;;;;;3.97;1.63;;;;;;;8.53;83.86;94770.22;6182856;23;20196;-84
2023/10/22 04:19:59;;;;;;;4.00;1.30;;;;;;;8.59;83.59;94773.97;6163536;23;20166;-85
2023/10/22 04:22:37;;;;;;;2.23;1.40;;;;;;;8.55;83.79;94775.25;6163308;23;20157;-85
2023/10/22 04:25:45;;;;;;;3.50;1.37;;;;;;;8.60;83.43;94779.00;6161654;23;20189;-85
2023/10/22 04:28:58;;;;;;;2.30;1.00;;;;;;;8.58;83.40;94777.53;6163654;23;20178;-83
2023/10/22 04:31:37;;;;;;;3.43;1.33;;;;;;;8.48;83.74;94781.06;6212473;23;20502;-84
2023/10/22 04:34:14;;;;;;;3.27;1.10;;;;;;;8.57;83.28;94789.66;6162894;23;20154;-86
2023/10/22 04:37:28;;;;;;;3.33;1.33;;;;;;;8.54;83.19;94782.19;6162759;23;20177;-85
2023/10/22 04:40:31;;;;;;;;;;;;;;;;;;;;;
2023/10/22 04:43:03;;;;;;;2.03;0.90;;;;;;;8.46;83.54;94789.91;6190460;23;20836;-84
2023/10/22 04:45:34;;;;;;;1.93;0.83;;;;;;;8.48;83.40;94796.56;6186992;23;20230;-84
2023/10/22 04:48:11;;;;;;;3.27;1.20;;;;;;;8.37;83.83;94796.00;6162564;23;20205;-83
2023/10/22 04:50:44;;;;;;;3.53;1.07;;;;;;;8.49;83.23;94797.38;6163065;23;20161;-84
2023/10/22 04:53:12;;;;;;;4.83;1.30;;;;;;;8.43;83.27;94803.16;6186429;23;20233;-83
2023/10/22 04:56:31;;;;;;;3.83;1.20;;;;;;;8.50;83.23;94797.22;6211653;23;20157;-85
2023/10/22 04:59:51;;;;;;;;;;;;;;;;;;;;;
2023/10/22 05:02:52;;;;;;;1.60;0.70;;;;;;;8.50;82.74;94793.81;6213663;23;20228;-84
2023/10/22 05:05:36;;;;;;;2.57;1.30;;;;;;;8.51;82.26;94803.22;6096934;23;20187;-83
2023/10/22 05:08:26;;;;;;;4.17;1.10;;;;;;;8.50;82.18;94805.00;6096636;23;20187;-84
2023/10/22 05:11:20;;;;;;;3.70;1.10;;;;;;;8.50;82.91;94801.59;6096885;23;20239;-84
2023/10/22 05:13:57;;;;;;;2.53;0.97;;;;;;;8.57;82.29;94812.97;6096740;23;20357;-84
2023/10/22 05:16:23;;;;;;;2.63;0.80;;;;;;;8.50;82.50;94811.94;6097219;23;20216;-84
2023/10/22 05:19:15;;;;;;;2.30;1.23;;;;;;;8.54;81.98;94812.44;6096906;23;20203;-84
2023/10/22 05:21:40;;;;;;;1.17;0.73;;;;;;;8.61;81.36;94810.88;6100379;23;20176;-85
2023/10/22 05:27:26;;;;;;;4.37;1.07;;;;;;;8.60;81.64;94817.81;6118522;23;20194;-85
2023/10/22 05:36:59;;;;;;;3.33;1.17;;;;;;;8.69;81.09;94831.63;6103155;23;20569;-85
2023/10/22 05:43:05;;;;;;;4.17;0.90;;;;;;;8.73;80.25;94838.91;6034618;23;20576;-85
2023/10/22 05:45:44;;;;;;;2.80;1.00;;;;;;;8.73;80.48;94841.50;6042854;23;20652;-85
2023/10/22 05:48:46;;;;;;;2.60;1.13;;;;;;;8.78;80.26;94846.22;6042264;23;20267;-85
2023/10/22 05:51:57;;;;;;;2.70;1.00;;;;;;;8.74;80.04;94856.06;6041650;23;20195;-85
2023/10/22 05:54:35;;;;;;;2.93;1.03;;;;;;;8.67;80.50;94852.47;6063993;23;20157;-85
2023/10/22 05:57:14;;;;;;;6.60;2.17;;;;;;;8.78;80.12;94854.81;6040735;23;20199;-85
2023/10/22 05:59:39;;;;;;;2.80;1.40;;;;;;;8.80;79.96;94859.81;6017121;23;20802;-85
2023/10/22 06:02:05;;;;;;;3.03;1.20;;;;;;;8.89;79.73;94858.09;6040979;23;20189;-83
2023/10/22 06:04:30;;;;;;;3.80;1.77;;;;;;;8.86;79.36;94863.59;6016849;23;20272;-84
2023/10/22 06:06:55;;;;;;;3.40;1.43;;;;;;;8.82;79.71;94863.06;6017299;23;20169;-83
2023/10/22 06:09:21;;;;;;;3.90;0.90;;;;;;;8.85;79.74;94865.38;6040695;23;20244;-83
2023/10/22 06:11:46;;;;;;;6.33;1.30;;;;;;;8.82;80.02;94868.25;6079983;23;20168;-84
2023/10/22 06:14:11;;;;;;;4.60;1.00;;;;;;;8.98;79.70;94862.34;6030344;23;20158;-84
2023/10/22 06:16:37;;;;;;;3.67;1.20;;;;;;;8.95;79.69;94870.44;6070388;23;20165;-85
2023/10/22 06:19:02;;;;;;;4.70;1.00;;;;;;;9.04;79.27;94872.09;6091478;23;20181;-83
2023/10/22 06:21:27;;;;;;;4.47;0.90;;;;;;;9.23;78.15;94869.25;6188364;23;20154;-84
2023/10/22 06:23:53;;;;;;;3.53;0.90;;;;;;;9.30;77.86;94878.03;6162410;23;20178;-84
2023/10/22 06:26:18;;;;;;;4.70;0.83;;;;;;;9.27;78.48;94878.34;6162998;23;20162;-84
2023/10/22 06:28:43;;;;;;;7.50;1.00;;;;;;;9.38;77.80;94884.22;6214552;23;20659;-84
2023/10/22 06:31:10;;;;;;;5.90;1.20;;;;;;;9.42;77.84;94891.53;6163252;23;20169;-84
2023/10/22 06:33:37;;;;;;;3.70;1.27;;;;;;;9.50;77.94;94888.97;6163116;23;20221;-85
2023/10/22 06:36:13;;;;;;;2.37;0.87;;;;;;;9.52;77.45;94887.03;6213086;23;20154;-84
2023/10/22 06:38:38;;;;;;;6.37;1.27;;;;;;;9.58;77.68;94890.78;6163216;23;20579;-84
2023/10/22 06:41:05;;;;;;;5.77;2.03;;;;;;;9.61;77.94;94896.44;6188300;23;20154;-82
2023/10/22 06:43:30;;;;;;;1.63;0.80;;;;;;;9.65;77.50;94896.97;6213408;23;20672;-83
2023/10/22 06:45:59;;;;;;;3.53;0.90;;;;;;;9.64;77.48;94895.34;6187538;23;20166;-83
2023/10/22 06:48:25;;;;;;;2.33;1.00;;;;;;;9.73;77.41;94896.97;6188564;23;20169;-83
2023/10/22 06:50:50;;;;;;;4.73;1.10;;;;;;;9.69;77.49;94900.84;6187675;23;20150;-84
2023/10/22 06:53:15;;;;;;;3.50;1.30;;;;;;;9.80;76.34;94907.50;6187789;23;20154;-83
2023/10/22 06:55:42;;;;;;;3.67;1.40;;;;;;;9.87;75.84;94904.13;6186965;23;20154;-84
2023/10/22 06:58:07;;;;;;;6.03;1.33;;;;;;;10.03;74.95;94899.94;6165776;23;20182;-84
2023/10/22 07:00:32;;;;;;;3.77;1.50;;;;;;;10.15;74.95;94901.25;6207212;23;20141;-85
2023/10/22 07:02:58;;;;;;;7.30;1.87;;;;;;;10.28;74.07;94906.03;6204352;23;20172;-82
2023/10/22 07:05:23;;;;;;;4.70;1.70;;;;;;;10.36;73.95;94911.22;6171842;23;20178;-83
2023/10/22 07:07:48;;;;;;;1.87;1.30;;;;;;;10.34;74.37;94910.56;6206271;23;20822;-83
2023/10/22 07:10:14;;;;;;;4.30;1.10;;;;;;;10.31;74.00;94909.09;6206826;23;20240;-83
2023/10/22 07:12:39;;;;;;;4.90;1.27;;;;;;;10.43;74.19;94914.78;6176833;23;20510;-84
2023/10/22 07:15:06;;;;;;;6.23;2.50;;;;;;;10.29;74.37;94910.22;6171431;23;20155;-82
2023/10/22 07:17:31;;;;;;;6.50;2.80;;;;;;;10.42;73.92;94911.38;6204752;23;20705;-83
2023/10/22 07:19:56;;;;;;;4.37;1.80;;;;;;;10.42;73.75;94916.59;6205920;23;20150;-83
2023/10/22 07:22:22;;;;;;;4.13;1.37;;;;;;;10.58;73.09;94920.13;6181560;23;20154;-83
2023/10/22 07:24:49;;;;;;;5.10;1.50;;;;;;;10.66;72.48;94933.13;6174816;23;20269;-81
2023/10/22 07:27:15;;;;;;;4.87;1.47;;;;;;;10.77;72.27;94925.78;6195478;23;20171;-84
2023/10/22 07:29:40;;;;;;;8.30;1.53;;;;;;;10.56;72.64;94935.88;6197333;23;20245;-82
2023/10/22 07:32:05;;;;;;;6.87;1.50;;;;;;;10.50;72.06;94937.31;6169768;23;20167;-82
2023/10/22 07:34:31;;;;;;;9.00;1.40;;;;;;;10.60;70.86;94938.94;6169295;23;20161;-82
2023/10/22 07:36:56;;;;;;;8.03;1.53;;;;;;;10.71;70.16;94941.25;6192775;23;20181;-82
2023/10/22 07:39:21;;;;;;;4.07;1.23;;;;;;;10.98;69.18;94935.69;6164267;23;20197;-82
2023/10/22 07:41:49;;;;;;;4.07;1.47;;;;;;;11.21;68.86;94942.78;6162727;23;20241;-83
2023/10/22 07:44:15;;;;;;;4.60;1.43;;;;;;;11.26;68.19;94945.72;6191474;23;20189;-83
2023/10/22 07:46:41;;;;;;;4.67;1.30;;;;;;;11.37;67.66;94944.53;6167291;23;20190;-83
2023/10/22 07:49:07;;;;;;;5.27;1.37;;;;;;;11.52;66.60;94948.88;6167944;23;20181;-81
2023/10/22 07:51:32;;;;;;;6.67;1.83;;;;;;;11.64;66.47;94949.31;6168491;23;20158;-82
2023/10/22 07:53:57;;;;;;;5.60;1.50;;;;;;;11.84;65.48;94942.78;6163239;23;20158;-83
2023/10/22 07:56:23;;;;;;;5.07;1.27;;;;;;;12.02;64.53;94947.72;6187789;23;20166;-80
2023/10/22 07:58:48;;;;;;;7.00;1.50;;;;;;;12.36;63.72;94967.34;6162811;23;20186;-82
2023/10/22 08:01:13;;;;;;;5.07;1.10;;;;;;;12.31;63.32;94967.09;6180470;23;20625;-82
2023/10/22 08:03:39;;;;;;;4.30;1.13;;;;;;;12.52;63.19;94962.03;6178388;23;20740;-83
2023/10/22 08:06:04;;;;;;;7.13;1.77;;;;;;;12.62;62.40;94965.22;6153133;23;20704;-83
2023/10/22 08:08:30;;;;;;;5.23;1.20;;;;;;;12.83;62.12;94969.81;6162663;23;20289;-81
2023/10/22 08:11:03;;;;;;;4.70;1.47;;;;;;;12.86;61.50;94972.06;6191346;23;20158;-81
2023/10/22 08:13:28;;;;;;;6.67;1.53;;;;;;;12.98;60.39;94975.03;6199122;23;20149;-81
2023/10/22 08:15:54;;;;;;;7.00;1.57;;;;;;;13.30;59.70;94982.59;6199939;23;20615;-82
2023/10/22 08:18:20;;;;;;;8.30;1.40;;;;;;;13.32;59.07;94972.78;6196124;23;20177;-82
2023/10/22 08:20:45;;;;;;;4.43;1.37;;;;;;;13.12;57.94;94976.88;6227679;23;20177;-81
2023/10/22 08:23:10;;;;;;;7.33;1.40;;;;;;;13.45;57.88;94980.03;6184273;23;20146;-82
2023/10/22 08:25:36;;;;;;;5.30;2.00;;;;;;;13.71;57.39;94984.81;6213650;23;20146;-83
2023/10/22 08:28:01;;;;;;;8.30;1.33;;;;;;;13.31;55.73;94984.22;6187860;23;20190;-82
2023/10/22 08:30:27;;;;;;;8.70;1.83;;;;;;;13.39;56.38;94987.75;6228488;23;20161;-83
2023/10/22 08:32:52;;;;;;;6.63;1.50;;;;;;;12.99;57.39;94992.31;6205486;23;20154;-84
2023/10/22 08:35:18;;;;;;;8.37;1.60;;;;;;;12.99;57.05;94981.91;6196329;23;20161;-84
2023/10/22 08:37:44;;;;;;;5.33;1.70;;;;;;;13.13;56.60;94994.13;6168857;23;20182;-83
2023/10/22 08:40:10;;;;;;;8.80;2.10;;;;;;;13.22;57.40;95000.94;6190478;23;20157;-82
2023/10/22 08:42:35;;;;;;;7.07;1.20;;;;;;;13.38;56.12;95005.19;6193089;23;20158;-82
2023/10/22 08:45:02;;;;;;;7.27;1.33;;;;;;;13.52;55.39;95008.81;6168752;23;20658;-84
2023/10/22 08:47:29;;;;;;;6.73;1.60;;;;;;;13.59;55.30;95012.31;6224117;23;20220;-83
2023/10/22 08:49:55;;;;;;;4.90;1.37;;;;;;;13.45;55.11;95008.72;6199848;23;20154;-83
2023/10/22 08:52:21;;;;;;;10.40;2.23;;;;;;;13.66;55.14;95021.03;6227760;23;20154;-85
2023/10/22 08:54:46;;;;;;;8.40;1.40;;;;;;;13.59;54.37;95018.34;6222141;23;20150;-84
2023/10/22 08:57:12;;;;;;;8.33;1.93;;;;;;;13.59;54.37;95009.69;6156839;23;20283;-81
2023/10/22 08:59:38;;;;;;;8.50;1.60;;;;;;;13.71;53.85;95015.31;6206797;23;20168;-83
2023/10/22 09:02:13;;;;;;;6.97;1.40;;;;;;;13.92;53.42;95009.34;6153876;23;20530;-84
2023/10/22 09:04:38;;;;;;;7.77;2.30;;;;;;;13.80;54.36;95022.84;6181130;23;20196;-83
2023/10/22 09:07:04;;;;;;;7.10;1.70;;;;;;;13.89;54.04;95029.59;6154913;23;20179;-84
2023/10/22 09:09:33;;;;;;;9.50;1.90;;;;;;;14.15;53.66;95025.72;6181897;23;20165;-85
2023/10/22 09:11:58;;;;;;;5.93;1.73;;;;;;;14.26;53.65;95021.84;6195542;23;20171;-84
2023/10/22 09:14:24;;;;;;;8.30;2.43;;;;;;;14.26;54.35;95020.03;6206495;23;20203;-85
2023/10/22 09:16:50;;;;;;;10.27;1.80;;;;;;;14.10;53.55;95028.88;6221155;23;20262;-86
2023/10/22 09:19:35;;;;;;;7.70;1.50;;;;;;;14.36;53.10;95011.91;6189644;23;20163;-86
2023/10/22 09:22:00;;;;;;;7.30;2.00;;;;;;;14.45;53.12;95021.28;6164099;23;20166;-84
2023/10/22 09:24:25;;;;;;;5.50;1.50;;;;;;;14.43;52.09;95020.63;6162354;23;20245;-85
2023/10/22 09:26:51;;;;;;;8.37;1.53;;;;;;;14.76;52.40;95022.81;6162826;23;20169;-85
2023/10/22 09:29:17;;;;;;;5.30;1.60;;;;;;;14.73;51.37;95023.97;6158384;23;20289;-81
2023/10/22 09:31:53;;;;;;;7.03;1.60;;;;;;;14.16;50.89;95022.13;6157079;23;20190;-80
2023/10/22 09:34:26;;;;;;;5.47;1.50;;;;;;;14.51;51.24;95025.78;6156166;23;20146;-80
2023/10/22 09:36:55;;;;;;;8.53;1.37;;;;;;;14.68;51.66;95023.75;6182252;23;20159;-81
2023/10/22 09:39:42;;;;;;;8.13;2.00;;;;;;;14.78;51.40;95042.53;6157476;23;20166;-79
2023/10/22 09:42:08;;;;;;;5.87;1.70;;;;;;;15.15;50.65;95038.88;6157976;23;20218;-80
2023/10/22 09:44:34;;;;;;;6.97;1.40;;;;;;;14.99;49.79;95026.84;6185306;23;20234;-84
2023/10/22 09:47:05;;;;;;;5.47;1.27;;;;;;;15.42;49.26;95028.63;6160108;23;20494;-84
2023/10/22 09:49:32;;;;;;;7.43;1.70;;;;;;;15.47;49.13;95024.44;6160527;23;20213;-84
2023/10/22 09:51:59;;;;;;;5.67;1.37;;;;;;;15.52;48.27;95035.13;6160939;23;20182;-82
2023/10/22 09:54:37;;;;;;;2.83;1.23;;;;;;;15.83;48.43;95031.34;6160311;23;20178;-82
2023/10/22 09:57:13;;;;;;;7.15;1.67;;;;;;;15.88;48.15;95033.38;6160901;23;20162;-82
2023/10/22 09:59:44;;;;;;;7.55;1.25;;;;;;;15.53;47.42;95041.97;6160297;23;20166;-82
2023/10/22 10:02:13;;;;;;;5.07;1.33;;;;;;;15.81;47.22;95044.66;6186182;23;20367;-83
2023/10/22 10:04:40;;;;;;;5.35;1.75;;;;;;;15.64;46.99;95051.19;6159711;23;20581;-83
2023/10/22 10:07:06;;;;;;;4.97;1.58;;;;;;;15.51;47.16;95053.66;6160464;23;20705;-82
2023/10/22 10:09:33;;;;;;;6.20;1.48;;;;;;;15.10;48.17;95056.09;6160960;23;20163;-84
2023/10/22 10:12:01;;;;;;;7.97;1.70;;;;;;;15.02;48.06;95062.28;6160176;23;20273;-83
2023/10/22 10:14:45;;;;;;;5.33;1.33;;;;;;;14.78;48.42;95062.66;6210899;23;20143;-84
2023/10/22 10:17:13;;;;;;;8.13;1.63;;;;;;;14.60;48.75;95065.66;6160624;23;20182;-82
2023/10/22 10:19:38;;;;;;;2.97;1.07;;;;;;;14.72;48.64;95066.78;6161778;23;20155;-82
2023/10/22 10:22:04;;;;;;;5.57;1.93;;;;;;;14.79;49.14;95065.06;6186882;23;20213;-83
2023/10/22 10:24:30;;;;;;;6.10;1.37;;;;;;;15.01;48.75;95078.94;6161430;23;20189;-81
2023/10/22 10:26:56;;;;;;;6.47;2.10;;;;;;;15.07;48.67;95074.78;6160699;23;20163;-84
2023/10/22 10:29:30;;;;;;;2.67;1.20;;;;;;;15.32;48.23;95067.38;6184658;23;20291;-82
2023/10/22 10:32:15;;;;;;;3.53;0.97;;;;;;;15.39;47.63;95063.84;6159395;23;20285;-83
2023/10/22 10:34:43;;;;;;;9.83;2.10;;;;;;;15.59;47.48;95072.63;6184767;23;20177;-82
2023/10/22 10:37:15;;;;;;;6.90;1.33;;;;;;;15.54;47.45;95064.53;6159918;23;20182;-82
2023/10/22 10:39:45;;;;;;;8.45;1.38;;;;;;;15.38;47.35;95069.25;6160765;23;20210;-84
2023/10/22 10:42:14;;;;;;;4.03;1.20;;;;;;;15.47;46.66;95068.94;6160887;23;20169;-83
2023/10/22 10:44:55;;;;;;;4.38;1.30;;;;;;;15.05;47.16;95074.19;6160024;23;20187;-83
2023/10/22 10:47:21;;;;;;;5.38;1.20;;;;;;;15.16;47.82;95082.31;6187233;23;20220;-84
2023/10/22 10:49:59;;;;;;;3.83;1.20;;;;;;;15.31;46.90;95061.34;6188047;23;20158;-85
2023/10/22 10:52:27;;;;;;;4.93;1.23;;;;;;;15.40;47.26;95067.25;6161232;23;20165;-83
2023/10/22 10:55:00;;;;;;;3.28;0.90;;;;;;;15.38;46.93;95064.03;6210423;23;20198;-84
2023/10/22 10:57:46;;;;;;;4.13;1.20;;;;;;;15.38;47.28;95062.22;6185753;23;21043;-84
2023/10/22 11:00:21;;;;;;;6.10;1.93;;;;;;;15.56;47.02;95070.41;6160558;23;20540;-84
2023/10/22 11:02:51;;;;;;;4.43;1.30;;;;;;;15.58;47.10;95071.03;6160346;23;20205;-83
2023/10/22 11:05:29;;;;;;;6.50;1.83;;;;;;;15.59;47.28;95067.41;6159744;23;20236;-82
2023/10/22 11:07:55;;;;;;;4.33;1.13;;;;;;;15.52;47.50;95073.56;6160711;23;20194;-83
2023/10/22 11:10:20;;;;;;;5.38;1.15;;;;;;;15.50;47.33;95067.72;6160737;23;20221;-82
2023/10/22 11:12:46;;;;;;;3.50;1.00;;;;;;;15.34;47.22;95073.22;6160442;23;20217;-82
2023/10/22 11:15:12;;;;;;;4.03;1.00;;;;;;;14.90;47.48;95072.41;6184606;23;20252;-83
2023/10/22 11:17:38;;;;;;;3.87;1.10;;;;;;;15.03;48.07;95069.13;6185015;23;20174;-82
2023/10/22 11:20:05;;;;;;;3.93;1.30;;;;;;;15.13;47.67;95076.69;6159745;23;20246;-83
2023/10/22 11:22:31;;;;;;;4.03;1.00;;;;;;;15.32;47.54;95059.53;6209070;23;20163;-83
2023/10/22 11:24:58;;;;;;;6.13;1.20;;;;;;;15.52;47.54;95066.53;6184943;23;20791;-82
2023/10/22 11:27:24;;;;;;;3.80;1.10;;;;;;;15.41;47.15;95061.81;6161546;23;20175;-83
2023/10/22 11:29:49;;;;;;;3.17;1.00;;;;;;;15.57;46.88;95061.56;6161796;23;20169;-82
2023/10/22 11:32:16;;;;;;;3.53;0.80;;;;;;;15.61;46.48;95063.81;6159736;23;20158;-82
2023/10/22 11:35:00;;;;;;;3.27;1.23;;;;;;;15.81;46.69;95055.13;6159601;23;20173;-82
2023/10/22 11:37:38;;;;;;;4.00;1.10;;;;;;;15.56;46.84;95067.78;6160980;23;20213;-84
2023/10/22 11:40:23;;;;;;;4.13;1.03;;;;;;;15.96;46.74;95070.69;6160841;23;20542;-84
2023/10/22 11:42:48;;;;;;;4.93;2.07;;;;;;;16.11;46.13;95074.03;6208691;23;20225;-84
2023/10/22 11:45:14;;;;;;;3.03;1.00;;;;;;;16.02;45.22;95077.00;6158874;23;20182;-84
2023/10/22 11:47:39;;;;;;;3.60;1.40;;;;;;;16.04;45.78;95081.03;6209718;23;20216;-84
2023/10/22 11:50:05;;;;;;;5.57;1.05;;;;;;;16.20;45.62;95079.91;6159020;23;20625;-84
2023/10/22 11:52:38;;;;;;;3.13;0.88;;;;;;;16.27;45.12;95082.56;6159681;23;20155;-84
2023/10/22 11:55:07;;;;;;;3.97;1.10;;;;;;;16.22;45.05;95075.28;6183349;23;20225;-83
2023/10/22 11:57:36;;;;;;;6.55;1.58;;;;;;;16.48;44.81;95082.47;6183807;23;20178;-83
2023/10/22 12:00:01;;;;;;;3.05;1.10;;;;;;;16.46;44.41;95076.63;6184189;23;20493;-83
2023/10/22 12:02:26;;;;;;;4.35;1.00;;;;;;;16.37;44.55;95080.41;6184101;23;20151;-84
2023/10/22 12:04:52;;;;;;;4.28;1.38;;;;;;;16.40;43.86;95080.00;6158099;23;20178;-83
2023/10/22 12:07:17;;;;;;;4.47;1.40;;;;;;;16.03;44.80;95074.16;6159011;23;20171;-83
2023/10/22 12:09:43;;;;;;;6.13;1.15;;;;;;;16.11;44.28;95084.50;6183925;23;20151;-83
2023/10/22 12:12:08;;;;;;;4.38;0.82;;;;;;;16.01;44.58;95083.22;6158545;23;20171;-84
2023/10/22 12:14:34;;;;;;;4.03;1.10;;;;;;;16.19;44.84;95085.34;6198770;23;20157;-83
2023/10/22 12:16:59;;;;;;;3.88;1.17;;;;;;;15.70;45.33;95092.28;6181050;23;20158;-81
2023/10/22 12:19:24;;;;;;;2.33;0.90;;;;;;;16.10;45.46;95089.94;6171346;23;20213;-83
2023/10/22 12:21:50;;;;;;;2.88;1.08;;;;;;;15.60;45.23;95091.75;6188810;23;20250;-82
2023/10/22 12:24:15;;;;;;;6.30;1.13;;;;;;;15.47;45.81;95096.91;6184964;23;20175;-80
2023/10/22 12:26:40;;;;;;;7.15;1.08;;;;;;;15.99;45.73;95088.66;6189730;23;20230;-83
2023/10/22 12:29:06;;;;;;;2.53;0.98;;;;;;;15.76;45.57;95103.81;6165620;23;20182;-82
2023/10/22 12:31:32;;;;;;;2.67;0.98;;;;;;;15.82;46.34;95093.38;6213217;23;20186;-81
2023/10/22 12:33:57;;;;;;;3.90;1.20;;;;;;;15.85;45.53;95102.66;6186139;23;20161;-83
2023/10/22 12:36:22;;;;;;;5.10;1.00;;;;;;;15.96;46.06;95094.28;6187617;23;20151;-83
2023/10/22 12:38:48;;;;;;;2.53;0.80;;;;;;;15.90;45.71;95095.03;6162594;23;20174;-83
2023/10/22 12:41:13;;;;;;;5.43;1.00;;;;;;;16.05;46.38;95103.59;6185638;23;20162;-83